Bayberry, NY

9:23 PM EST on January 23, 2017 (GMT -0500)
Country Meadow | | Change Station
Active Advisory: Winter Storm Warning

Elev 410 ft 43.17 °N, 76.16 °W | Updated 1 minute ago

Snow
Snow
33.6 °F
Feels Like 27 °F
N
7.0
Wind Variable Wind from ENE
Gusts 9.0 mph

Today
High -- | Low -- °F
--% Chance of Precip.
Yesterday
High -- | Low -- °F
Precip. -- in
Pressure 29.78 in
Visibility 10.0 miles
Clouds Overcast 6500 ft
Windchill 27 °F
Dew Point 27 °F
Humidity 76%
Rainfall 0.00 in
Snow Depth Not available.
7:28 AM 5:05 PM
Waning Crescent, 15% visible
METAR KSYR 240154Z 09015G24KT 10SM -RA OVC065 01/M03 A2978 RMK AO2 RAB30 SLP085 P0000 T00061028
Pressure 29.78 in
Visibility 10.0 miles
Clouds Overcast 6500 ft
Windchill 27 °F
Dew Point 27 °F
Humidity 76%
Rainfall 0.00 in
Snow Depth Not available.
7:28 AM 5:05 PM
Waning Crescent, 15% visible
METAR KSYR 240154Z 09015G24KT 10SM -RA OVC065 01/M03 A2978 RMK AO2 RAB30 SLP085 P0000 T00061028

Get Your Daily Forecast Email!

Thanks for signing up!

Be on the lookout for a verification email in your inbox.

You'll start receiving the daily forecast at 8 AM.

×

10-Day Weather Forecast

Almanac

Astronomy

Jan. 23, 2017 Rise Set
Actual Time
Civil Twilight
Nautical Twilight
Astronomical Twilight
Moon
Length of Visible Light
Length of Day
Tomorrow will be .
, % of the Moon is Illuminated

Today's Extremes

State Highs State Lows

Community

WunderPhotos

Upload Photos

1,962,540 photos uploaded!

WunderBlog® & News

Nearby

Air Quality

  Air Quality AQ Index Pollutant
Not available.

Snow Depth

Station Depth Elevation

Earthquake Activity

City Distance Mag. Time & Date
Minimum magnitude displayed is 2.5.

Coastal Water Temperatures

Place Temperature

Stations

Nearby Weather Stations

Station Location Temp. Windchill Dew Point Humidity Wind Precip. Elev Updated Type
                   

Watches & Warnings

Winter Storm Warning
Issued: 7:23 PM EST Jan. 23, 2017 – National Weather Service

... Winter Storm Warning remains in effect until 1 PM EST
Tuesday...

* locations... central New York and the northern tier of
Pennsylvania.

* Hazard types... heavy wet snow... sleet... freezing rain and gusty winds.

* Accumulations... snow accumulation of 4 to 9 inches... along
with around a trace of ice.

* Timing... rain and sleet mixed with snow will change over to a
heavy mix of snow... sleet and freezing rain overnight into
Tuesday morning before precipitation diminishes in the
afternoon.

* Impacts... snow and ice accumulations will make many roads
treacherous and impassable.

* Winds... northeast 10 to 15 mph with gusts up to 25 mph.

* Temperatures... in the lower 30s.

Precautionary/preparedness actions...

A Winter Storm Warning means heavy snow and icing is expected or
occurring. Heavy snow with some ice is forecast that will make
travel very dangerous. Only travel in an emergency. If you must
travel... keep an extra flashlight... food... and water in your
vehicle in case of an emergency.